EFMA/MHQ METAR and TAF weather

Enter ICAO airport designator
Station Type Date Time Source
EFMA METAR 2019/08/19 23:20 UTC NOAA

EFMA 192320Z AUTO 22005KT 180V250 CAVOK 16/13 Q1011


Station Type Date Time Source
EFMA Decoded METAR 2019/08/19 23:20 UTC NOAA

Mariehamn / Aland Island, Finland (EFMA) 60-07N 019-54E
Aug 19, 2019 - 07:20 PM EDT / 2019.08.19 2320 UTC
Wind: from the SW (220 degrees) at 6 MPH (5 KT) (direction variable):0
Visibility: greater than 7 mile(s):0
Temperature: 60 F (16 C)
Dew Point: 55 F (13 C)
Relative Humidity: 82%
Pressure (altimeter): 29.85 in. Hg (1011 hPa)
ob: EFMA 192320Z AUTO 22005KT 180V250 CAVOK 16/13 Q1011
cycle: 23

Station Type Date Time Source
EFMA TAF 2014/05/01 21:18 UTC NOAA

TAF TAF EFMA 302037Z 3021/0106 08008KT CAVOK
TEMPO 3023/0101 02010KT 6000 RASN
BECMG 0101/0103 01012KT 4000 RASN BKN010 OVC025

Example: see airport list